Time;durP1;ratioP1;P1;durP2;ratioP2;P2;SDS_P1;SDS_P2;PMS_P1;PMS_P2;Temp;Humidity;BMP_temperature;BMP_pressure;BME280_temperature;BME280_humidity;BME280_pressure;Samples;Min_cycle;Max_cycle;Signal;HPM_P1;HPM_P2
2022/09/10 00:00:30;;;;;;;15.60;13.60;;;14.50;99.90;;;;;;4985158;28;20081;-79
2022/09/10 00:02:55;;;;;;;20.35;15.15;;;14.60;99.90;;;;;;4986006;28;20050;-80
2022/09/10 00:05:21;;;;;;;19.65;13.00;;;14.50;99.90;;;;;;4986183;28;20042;-78
2022/09/10 00:07:46;;;;;;;17.90;14.20;;;14.60;99.90;;;;;;4987725;28;20038;-79
2022/09/10 00:10:12;;;;;;;24.45;15.52;;;14.60;99.90;;;;;;4982642;28;20156;-79
2022/09/10 00:12:41;;;;;;;20.60;14.38;;;14.60;99.90;;;;;;4982770;28;20412;-80
2022/09/10 00:15:07;;;;;;;18.88;13.32;;;14.70;99.90;;;;;;4987772;28;20161;-80
2022/09/10 00:17:32;;;;;;;17.35;15.15;;;14.60;99.90;;;;;;4987581;28;20046;-79
2022/09/10 00:19:58;;;;;;;23.42;17.35;;;14.70;99.90;;;;;;4986188;28;20042;-80
2022/09/10 00:22:24;;;;;;;20.67;15.02;;;14.70;99.90;;;;;;4984814;28;20045;-80
2022/09/10 00:24:56;;;;;;;23.73;17.05;;;14.60;99.90;;;;;;4986542;28;20437;-80
2022/09/10 00:27:22;;;;;;;23.85;17.48;;;14.60;99.90;;;;;;4984960;28;20408;-80
2022/09/10 00:29:52;;;;;;;25.42;19.70;;;14.60;99.90;;;;;;4969541;28;20038;-80
2022/09/10 00:32:21;;;;;;;24.23;17.80;;;14.50;99.90;;;;;;4986909;28;20389;-80
2022/09/10 00:34:47;;;;;;;20.90;18.00;;;14.50;99.90;;;;;;4985039;28;20046;-79
2022/09/10 00:37:15;;;;;;;21.10;15.75;;;14.50;99.90;;;;;;4982692;28;20508;-80
2022/09/10 00:39:40;;;;;;;21.83;17.17;;;14.40;99.90;;;;;;4986836;28;20087;-79
2022/09/10 00:42:10;;;;;;;26.52;20.30;;;14.40;99.90;;;;;;4987717;28;20046;-79
2022/09/10 00:44:39;;;;;;;22.13;17.85;;;14.40;99.90;;;;;;4987196;28;20042;-79
2022/09/10 00:47:30;;;;;;;22.73;18.08;;;14.40;99.90;;;;;;4983114;28;20624;-79
2022/09/10 00:50:18;;;;;;;23.83;17.52;;;14.40;99.90;;;;;;4980622;28;20104;-78
2022/09/10 00:52:46;;;;;;;27.73;19.35;;;14.40;99.90;;;;;;4984781;28;20069;-79
2022/09/10 00:55:13;;;;;;;21.60;17.83;;;14.50;99.90;;;;;;4983714;28;20057;-79
2022/09/10 00:57:39;;;;;;;26.30;19.50;;;14.50;99.90;;;;;;4984788;28;20141;-79
2022/09/10 01:00:09;;;;;;;23.70;17.73;;;14.50;99.90;;;;;;4984500;28;20582;-79
2022/09/10 01:02:34;;;;;;;25.08;19.60;;;14.50;99.90;;;;;;4985468;28;20042;-80
2022/09/10 01:05:02;;;;;;;30.17;20.63;;;14.60;99.90;;;;;;4984210;28;20527;-80
2022/09/10 01:07:29;;;;;;;28.45;19.77;;;14.60;99.90;;;;;;4985771;28;20047;-79
2022/09/10 01:09:58;;;;;;;24.80;18.45;;;14.60;99.90;;;;;;4986763;28;20092;-79
2022/09/10 01:12:42;;;;;;;24.35;20.30;;;14.60;99.90;;;;;;4985409;28;20401;-79
2022/09/10 01:15:28;;;;;;;29.60;23.77;;;14.60;99.90;;;;;;4982184;28;20046;-79
2022/09/10 01:18:29;;;;;;;26.70;20.70;;;14.60;99.90;;;;;;4985187;28;20046;-79
2022/09/10 01:21:20;;;;;;;25.80;20.25;;;14.60;99.90;;;;;;4980259;28;20065;-79
2022/09/10 01:24:26;;;;;;;30.38;21.58;;;14.60;99.90;;;;;;4959973;28;20121;-79
2022/09/10 01:27:28;;;;;;;26.95;19.58;;;14.60;99.90;;;;;;4970794;28;20059;-79
2022/09/10 01:30:22;;;;;;;32.03;21.80;;;14.70;99.90;;;;;;4983383;28;20054;-78
2022/09/10 01:33:06;;;;;;;26.95;18.60;;;14.70;99.90;;;;;;4980518;28;20058;-78
2022/09/10 01:35:55;;;;;;;31.70;22.20;;;14.70;99.90;;;;;;4985248;28;20382;-79
2022/09/10 01:38:30;;;;;;;27.80;21.27;;;14.80;99.90;;;;;;4981489;28;20161;-79
2022/09/10 01:40:57;;;;;;;26.42;18.50;;;14.80;99.90;;;;;;4985114;28;20447;-78
2022/09/10 01:43:23;;;;;;;27.50;20.90;;;14.80;99.90;;;;;;4983578;28;20046;-79
2022/09/10 01:46:27;;;;;;;25.90;19.40;;;14.80;99.90;;;;;;4983385;28;20169;-79
2022/09/10 01:49:17;;;;;;;28.65;21.05;;;14.90;99.90;;;;;;4982053;28;20038;-79
2022/09/10 01:51:58;;;;;;;25.30;19.10;;;14.90;99.90;;;;;;4984369;28;20085;-79
2022/09/10 01:54:25;;;;;;;25.88;17.48;;;14.90;99.90;;;;;;4981243;28;20049;-78
2022/09/10 01:57:09;;;;;;;22.85;18.00;;;14.90;99.90;;;;;;4982007;28;20047;-79
2022/09/10 01:59:44;;;;;;;27.90;20.80;;;14.90;99.90;;;;;;5001571;28;20052;-79
2022/09/10 02:02:20;;;;;;;28.05;21.58;;;14.90;99.90;;;;;;4985568;28;20039;-79
2022/09/10 02:04:49;;;;;;;32.47;21.40;;;14.90;99.90;;;;;;4984391;28;20042;-79
2022/09/10 02:07:17;;;;;;;28.38;21.48;;;14.90;99.90;;;;;;4985691;28;20560;-79
2022/09/10 02:09:43;;;;;;;36.05;25.60;;;15.00;99.90;;;;;;4986084;28;20050;-79
2022/09/10 02:12:17;;;;;;;33.00;24.10;;;15.00;99.90;;;;;;4984296;28;20038;-79
2022/09/10 02:14:42;;;;;;;27.75;21.30;;;15.00;99.90;;;;;;4984774;28;20129;-79
2022/09/10 02:17:08;;;;;;;31.75;24.70;;;15.00;99.90;;;;;;4997235;28;20141;-79
2022/09/10 02:19:34;;;;;;;27.70;21.25;;;14.90;99.90;;;;;;4985236;28;20038;-79
2022/09/10 02:21:59;;;;;;;27.90;19.75;;;14.90;99.90;;;;;;4984176;28;20093;-79
2022/09/10 02:24:26;;;;;;;29.85;23.77;;;14.90;99.90;;;;;;4981285;28;20050;-79
2022/09/10 02:26:51;;;;;;;34.88;24.10;;;14.90;99.90;;;;;;4985775;28;20038;-79
2022/09/10 02:29:18;;;;;;;29.05;21.75;;;14.90;99.90;;;;;;4986198;28;20224;-79
2022/09/10 02:31:43;;;;;;;31.98;23.33;;;14.90;99.90;;;;;;4985619;28;20152;-79
2022/09/10 02:34:09;;;;;;;26.98;19.67;;;14.90;99.90;;;;;;4991279;28;20045;-79
2022/09/10 02:36:35;;;;;;;28.77;20.83;;;14.90;99.90;;;;;;4989807;28;20053;-79
2022/09/10 02:39:03;;;;;;;27.23;21.98;;;14.90;99.90;;;;;;4987937;28;20050;-79
2022/09/10 02:41:32;;;;;;;25.48;19.42;;;15.00;99.90;;;;;;4987604;28;20150;-79
2022/09/10 02:44:01;;;;;;;26.85;20.88;;;15.00;99.90;;;;;;4986425;28;20044;-79
2022/09/10 02:46:27;;;;;;;32.15;23.95;;;15.00;99.90;;;;;;4986963;28;20082;-79
2022/09/10 02:48:54;;;;;;;30.08;19.75;;;15.00;99.90;;;;;;4990592;28;20434;-80
2022/09/10 02:51:23;;;;;;;33.60;21.23;;;15.00;99.90;;;;;;5000327;28;20493;-80
2022/09/10 02:53:49;;;;;;;24.02;18.35;;;15.00;99.90;;;;;;4967987;28;20046;-80
2022/09/10 02:56:15;;;;;;;23.27;18.42;;;15.00;99.90;;;;;;4991123;28;20065;-80
2022/09/10 02:58:40;;;;;;;26.08;20.80;;;15.00;99.90;;;;;;4989862;28;20508;-80
2022/09/10 03:01:16;;;;;;;32.08;22.50;;;15.00;99.90;;;;;;4990735;28;20038;-80
2022/09/10 03:03:42;;;;;;;32.97;24.60;;;15.10;99.90;;;;;;4990284;28;20050;-80
2022/09/10 03:06:08;;;;;;;31.67;24.17;;;15.00;99.90;;;;;;4988174;28;20030;-80
2022/09/10 03:08:34;;;;;;;29.13;22.55;;;15.00;99.90;;;;;;4989374;28;20045;-80
2022/09/10 03:11:00;;;;;;;31.02;23.40;;;15.00;99.90;;;;;;4989791;28;20460;-80
2022/09/10 03:13:26;;;;;;;31.50;20.63;;;15.00;99.90;;;;;;4970590;28;20039;-80
2022/09/10 03:15:57;;;;;;;31.02;22.85;;;15.00;99.90;;;;;;4990062;28;20038;-80
2022/09/10 03:18:24;;;;;;;31.85;23.05;;;15.00;99.90;;;;;;5004512;28;20038;-80
2022/09/10 03:20:50;;;;;;;27.42;19.85;;;15.00;99.90;;;;;;4989723;28;20101;-80
2022/09/10 03:23:17;;;;;;;32.28;23.92;;;15.00;99.90;;;;;;4989637;28;20374;-80
2022/09/10 03:25:42;;;;;;;25.48;20.58;;;15.00;99.90;;;;;;4973849;28;20128;-80
2022/09/10 03:28:09;;;;;;;33.28;25.08;;;15.00;99.90;;;;;;4990051;28;20129;-80
2022/09/10 03:30:35;;;;;;;33.10;22.42;;;15.00;99.90;;;;;;4990744;28;20539;-80
2022/09/10 03:33:01;;;;;;;27.05;22.15;;;15.00;99.90;;;;;;4989026;28;20050;-80
2022/09/10 03:35:27;;;;;;;31.35;23.67;;;15.00;99.90;;;;;;5006029;28;20097;-80
2022/09/10 03:37:52;;;;;;;28.83;21.45;;;15.00;99.90;;;;;;4987116;28;20046;-80
2022/09/10 03:40:18;;;;;;;27.90;23.27;;;14.90;99.90;;;;;;4987831;28;20539;-80
2022/09/10 03:42:44;;;;;;;28.65;21.65;;;14.90;99.90;;;;;;4988914;28;20042;-79
2022/09/10 03:45:10;;;;;;;31.05;22.38;;;14.90;99.90;;;;;;4987567;28;20069;-80
2022/09/10 03:47:36;;;;;;;30.77;22.77;;;14.90;99.90;;;;;;4994459;28;20485;-79
2022/09/10 03:50:03;;;;;;;32.45;22.13;;;14.90;99.90;;;;;;4993609;28;20042;-80
2022/09/10 03:52:29;;;;;;;27.60;20.33;;;14.90;99.90;;;;;;4989193;28;20072;-80
2022/09/10 03:54:54;;;;;;;31.02;23.13;;;14.90;99.90;;;;;;4989486;28;20070;-80
2022/09/10 03:57:21;;;;;;;36.28;23.38;;;14.90;99.90;;;;;;4987248;28;20064;-79
2022/09/10 03:59:46;;;;;;;30.80;22.60;;;14.90;99.90;;;;;;5002252;28;20088;-79
2022/09/10 04:02:13;;;;;;;41.13;23.02;;;14.90;99.90;;;;;;4988268;28;20481;-79
2022/09/10 04:04:40;;;;;;;33.22;25.02;;;14.90;99.90;;;;;;4985929;28;20130;-79
2022/09/10 04:07:06;;;;;;;29.90;22.60;;;14.90;99.90;;;;;;4983821;28;20050;-79
2022/09/10 04:09:31;;;;;;;31.70;23.88;;;14.80;99.90;;;;;;4999044;28;20088;-79
2022/09/10 04:11:58;;;;;;;29.95;21.65;;;14.80;99.90;;;;;;4967069;28;20066;-79
2022/09/10 04:14:25;;;;;;;34.10;23.33;;;14.90;99.90;;;;;;4983170;28;20041;-79
2022/09/10 04:16:51;;;;;;;35.22;22.55;;;14.90;99.90;;;;;;4985023;28;20046;-80
2022/09/10 04:19:16;;;;;;;34.83;22.30;;;14.90;99.90;;;;;;4986983;28;20046;-79
2022/09/10 04:21:42;;;;;;;36.97;24.17;;;14.80;99.90;;;;;;4987117;28;20550;-79
2022/09/10 04:24:10;;;;;;;29.88;21.60;;;14.90;99.90;;;;;;4986047;28;20500;-79
2022/09/10 04:26:36;;;;;;;35.28;23.13;;;14.90;99.90;;;;;;4986566;28;20045;-79
2022/09/10 04:29:02;;;;;;;32.10;22.48;;;14.90;99.90;;;;;;4984595;28;20126;-79
2022/09/10 04:31:28;;;;;;;33.88;21.70;;;14.90;99.90;;;;;;5001215;28;20042;-79
2022/09/10 04:33:53;;;;;;;28.58;19.50;;;14.90;99.90;;;;;;4985366;28;20046;-79
2022/09/10 04:36:19;;;;;;;31.27;21.85;;;14.90;99.90;;;;;;4989389;28;20045;-79
2022/09/10 04:38:45;;;;;;;35.60;23.30;;;15.00;99.90;;;;;;4990332;28;20047;-79
2022/09/10 04:41:11;;;;;;;29.30;21.17;;;15.00;99.90;;;;;;5004639;28;20049;-79
2022/09/10 04:43:37;;;;;;;42.58;28.83;;;15.00;99.90;;;;;;4991757;28;20409;-79
2022/09/10 04:46:02;;;;;;;38.78;26.52;;;15.00;99.90;;;;;;4991857;28;20042;-80
2022/09/10 04:48:28;;;;;;;32.63;19.60;;;15.00;99.90;;;;;;4991742;28;20079;-79
2022/09/10 04:50:54;;;;;;;34.40;21.27;;;15.00;99.90;;;;;;4983644;28;20051;-79
2022/09/10 04:53:20;;;;;;;28.10;21.83;;;15.00;99.90;;;;;;4983525;28;20485;-79
2022/09/10 04:55:48;;;;;;;40.60;26.63;;;15.00;99.90;;;;;;4984914;28;20043;-79
2022/09/10 04:58:13;;;;;;;31.58;22.55;;;15.10;99.90;;;;;;4972223;28;20375;-79
2022/09/10 05:00:39;;;;;;;29.80;20.60;;;15.10;99.90;;;;;;4985963;28;20065;-79
2022/09/10 05:03:06;;;;;;;34.10;21.67;;;15.00;99.90;;;;;;4991310;28;20084;-79
2022/09/10 05:05:32;;;;;;;33.78;21.65;;;15.00;99.90;;;;;;4991191;28;20127;-79
2022/09/10 05:07:59;;;;;;;38.63;23.08;;;15.00;99.90;;;;;;4991151;28;20039;-79
2022/09/10 05:10:26;;;;;;;35.97;22.85;;;15.00;99.90;;;;;;4988195;28;20043;-79
2022/09/10 05:12:52;;;;;;;34.38;21.63;;;15.00;99.90;;;;;;4987696;28;20047;-79
2022/09/10 05:15:18;;;;;;;29.88;21.40;;;15.10;99.90;;;;;;4971648;28;20043;-79
2022/09/10 05:17:43;;;;;;;35.45;22.90;;;15.10;99.90;;;;;;4985837;28;20049;-79
2022/09/10 05:20:09;;;;;;;33.70;19.45;;;15.20;99.90;;;;;;4988026;28;20513;-80
2022/09/10 05:22:35;;;;;;;33.58;21.65;;;15.20;99.90;;;;;;4984994;28;20105;-79
2022/09/10 05:25:02;;;;;;;28.35;19.33;;;15.20;99.90;;;;;;4988672;28;20085;-79
2022/09/10 05:27:28;;;;;;;26.75;17.85;;;15.20;99.90;;;;;;4990621;28;20034;-79
2022/09/10 05:29:53;;;;;;;29.45;19.50;;;15.20;99.90;;;;;;4989863;28;20057;-79
2022/09/10 05:32:19;;;;;;;26.10;18.08;;;15.20;99.90;;;;;;4987944;28;20094;-80
2022/09/10 05:34:47;;;;;;;27.17;18.13;;;15.30;99.90;;;;;;4987774;28;20101;-80
2022/09/10 05:37:14;;;;;;;29.52;19.35;;;15.30;99.90;;;;;;4971860;28;20077;-80
2022/09/10 05:39:40;;;;;;;29.52;20.20;;;15.30;99.90;;;;;;4982820;28;20046;-80
2022/09/10 05:42:06;;;;;;;28.27;19.30;;;15.30;99.90;;;;;;4990671;28;20042;-80
2022/09/10 05:44:32;;;;;;;27.33;19.77;;;15.40;99.90;;;;;;4990770;28;20096;-80
2022/09/10 05:46:58;;;;;;;33.28;19.25;;;15.30;99.90;;;;;;4990809;28;20038;-80
2022/09/10 05:49:24;;;;;;;25.30;18.15;;;15.40;99.90;;;;;;4986143;28;20104;-79
2022/09/10 05:51:50;;;;;;;26.33;18.55;;;15.40;99.90;;;;;;4986620;28;20204;-76
2022/09/10 05:54:15;;;;;;;32.47;21.60;;;15.40;99.90;;;;;;4988823;28;20073;-77
2022/09/10 05:56:41;;;;;;;28.73;19.45;;;15.40;99.90;;;;;;4990068;28;20069;-77
2022/09/10 05:59:09;;;;;;;27.92;19.45;;;15.50;99.90;;;;;;4989401;28;20046;-77
2022/09/10 06:01:35;;;;;;;27.67;18.77;;;15.50;99.90;;;;;;4990365;28;20057;-77
2022/09/10 06:04:01;;;;;;;28.10;20.45;;;15.50;99.90;;;;;;4990389;28;20054;-77
2022/09/10 06:06:27;;;;;;;29.75;18.30;;;15.50;99.90;;;;;;4990114;28;20504;-77
2022/09/10 06:08:53;;;;;;;27.63;17.30;;;15.50;99.90;;;;;;4991829;28;20054;-77
2022/09/10 06:11:19;;;;;;;34.63;21.60;;;15.50;99.90;;;;;;4985842;28;20249;-77
2022/09/10 06:13:44;;;;;;;32.42;19.95;;;15.60;99.90;;;;;;4977923;28;20038;-77
2022/09/10 06:16:11;;;;;;;30.48;20.58;;;15.50;99.90;;;;;;4993395;28;20085;-77
2022/09/10 06:18:37;;;;;;;32.58;19.63;;;15.60;99.90;;;;;;4993594;28;20057;-77
2022/09/10 06:21:05;;;;;;;32.58;21.27;;;15.60;99.90;;;;;;4993940;28;20504;-77
2022/09/10 06:23:31;;;;;;;34.90;21.15;;;15.50;99.90;;;;;;4992943;28;20074;-79
2022/09/10 06:26:05;;;;;;;35.90;22.80;;;15.60;99.90;;;;;;4985306;28;20077;-79
2022/09/10 06:28:31;;;;;;;41.97;23.40;;;15.60;99.90;;;;;;4979195;28;20062;-79
2022/09/10 06:30:57;;;;;;;40.97;21.90;;;15.60;99.90;;;;;;4995535;28;20038;-80
2022/09/10 06:33:23;;;;;;;34.15;21.00;;;15.60;99.90;;;;;;4994158;28;20034;-80
2022/09/10 06:35:54;;;;;;;44.92;24.65;;;15.60;99.90;;;;;;4991628;28;20042;-81
2022/09/10 06:38:19;;;;;;;34.28;22.58;;;15.70;99.90;;;;;;4986343;28;20061;-81
2022/09/10 06:40:58;;;;;;;35.67;21.67;;;15.70;99.90;;;;;;4992783;28;20046;-80
2022/09/10 06:43:24;;;;;;;35.22;23.38;;;15.70;99.90;;;;;;4997167;28;20546;-80
2022/09/10 06:45:51;;;;;;;36.17;22.45;;;15.70;99.90;;;;;;4998052;28;20113;-80
2022/09/10 06:48:18;;;;;;;38.28;22.33;;;15.70;99.90;;;;;;4992735;28;20465;-80
2022/09/10 06:50:55;;;;;;;37.33;23.52;;;15.70;99.90;;;;;;4989830;28;20086;-81
2022/09/10 06:53:22;;;;;;;36.03;22.50;;;15.70;99.90;;;;;;4987800;28;20065;-81
2022/09/10 06:55:49;;;;;;;41.30;22.10;;;15.70;99.90;;;;;;4988146;28;20069;-81
2022/09/10 06:58:16;;;;;;;36.05;21.42;;;15.70;99.90;;;;;;4990138;28;20137;-81
2022/09/10 07:00:42;;;;;;;38.53;24.42;;;15.70;99.90;;;;;;4991271;28;20058;-81
2022/09/10 07:03:08;;;;;;;41.83;24.33;;;15.70;99.90;;;;;;4985615;28;20034;-81
2022/09/10 07:05:34;;;;;;;44.28;24.55;;;15.70;99.90;;;;;;4984132;28;20042;-81
2022/09/10 07:08:00;;;;;;;46.42;24.92;;;15.70;99.90;;;;;;5002794;28;20081;-80
2022/09/10 07:10:27;;;;;;;52.90;28.20;;;15.80;99.90;;;;;;4986987;28;20049;-81
2022/09/10 07:12:53;;;;;;;41.95;23.23;;;15.80;99.90;;;;;;4990600;28;20069;-81
2022/09/10 07:15:18;;;;;;;37.55;24.67;;;15.80;99.90;;;;;;4988261;28;20038;-80
2022/09/10 07:17:44;;;;;;;49.78;30.35;;;15.80;99.90;;;;;;5004009;28;20145;-80
2022/09/10 07:20:10;;;;;;;43.17;24.83;;;15.80;99.90;;;;;;4972453;28;20509;-80
2022/09/10 07:22:36;;;;;;;45.42;28.23;;;15.90;99.90;;;;;;4972584;28;20038;-80
2022/09/10 07:25:02;;;;;;;41.45;23.83;;;15.90;99.90;;;;;;4963151;28;20428;-80
2022/09/10 07:27:28;;;;;;;43.75;24.55;;;16.00;99.90;;;;;;4973960;28;20037;-79
2022/09/10 07:29:53;;;;;;;44.65;25.65;;;16.00;99.90;;;;;;4989502;28;20072;-81
2022/09/10 07:32:19;;;;;;;39.45;24.35;;;16.00;99.90;;;;;;4967397;28;20050;-80
2022/09/10 07:34:46;;;;;;;41.13;23.27;;;16.10;99.90;;;;;;4986588;28;20042;-80
2022/09/10 07:37:14;;;;;;;39.95;24.25;;;16.10;99.90;;;;;;4967423;28;20069;-80
2022/09/10 07:39:40;;;;;;;42.22;24.23;;;16.10;99.90;;;;;;4972419;28;20038;-78
2022/09/10 07:42:06;;;;;;;32.42;21.45;;;16.20;99.90;;;;;;4990736;28;20045;-80
2022/09/10 07:44:31;;;;;;;38.88;25.05;;;16.20;99.90;;;;;;4990753;28;20049;-80
2022/09/10 07:46:57;;;;;;;29.40;20.08;;;16.20;99.90;;;;;;4989594;28;20054;-80
2022/09/10 07:49:22;;;;;;;46.80;24.85;;;16.30;99.90;;;;;;4988877;28;20048;-80
2022/09/10 07:51:53;;;;;;;42.85;24.70;;;16.30;99.90;;;;;;4991005;28;20052;-80
2022/09/10 07:54:19;;;;;;;38.45;22.23;;;16.30;99.90;;;;;;4989207;28;20093;-80
2022/09/10 07:56:45;;;;;;;37.83;24.08;;;16.40;99.90;;;;;;4988820;28;20081;-80
2022/09/10 07:59:12;;;;;;;34.20;21.33;;;16.40;99.90;;;;;;4990876;28;20350;-80
2022/09/10 08:01:37;;;;;;;58.22;30.63;;;16.40;99.90;;;;;;4988312;28;20084;-81
2022/09/10 08:04:04;;;;;;;45.95;25.63;;;16.40;99.90;;;;;;4989496;28;20102;-80
2022/09/10 08:06:31;;;;;;;36.80;25.30;;;16.40;99.90;;;;;;4989221;28;20039;-80
2022/09/10 08:08:56;;;;;;;32.38;21.35;;;16.50;99.90;;;;;;4988889;28;20039;-80
2022/09/10 08:11:22;;;;;;;40.70;21.25;;;16.50;99.90;;;;;;4993018;28;20043;-80
2022/09/10 08:13:49;;;;;;;29.15;19.83;;;16.60;99.90;;;;;;4993431;28;20404;-80
2022/09/10 08:16:18;;;;;;;35.22;22.13;;;16.60;99.90;;;;;;4993900;28;20065;-80
2022/09/10 08:18:46;;;;;;;30.33;20.92;;;16.50;99.90;;;;;;4988834;28;20042;-80
2022/09/10 08:21:12;;;;;;;35.53;21.83;;;16.50;99.90;;;;;;4991199;28;20049;-80
2022/09/10 08:23:38;;;;;;;32.25;21.90;;;16.60;99.90;;;;;;4987417;28;20117;-80
2022/09/10 08:26:07;;;;;;;35.78;20.15;;;16.60;99.90;;;;;;4986858;28;20916;-80
2022/09/10 08:28:34;;;;;;;34.95;21.10;;;16.70;99.90;;;;;;5001804;28;20034;-80
2022/09/10 08:31:01;;;;;;;35.38;21.77;;;16.70;99.90;;;;;;4987239;28;20061;-80
2022/09/10 08:33:29;;;;;;;30.98;20.17;;;16.80;99.90;;;;;;4972186;28;20042;-80
2022/09/10 08:35:58;;;;;;;29.63;19.48;;;16.80;99.90;;;;;;4990325;28;20129;-80
2022/09/10 08:38:45;;;;;;;35.85;23.63;;;16.80;99.90;;;;;;4991137;28;20360;-80
2022/09/10 08:41:16;;;;;;;40.42;26.65;;;16.80;99.90;;;;;;4990392;28;20054;-80
2022/09/10 08:43:51;;;;;;;38.70;22.55;;;16.90;99.90;;;;;;4992156;28;20050;-80
2022/09/10 08:46:30;;;;;;;34.50;25.25;;;16.90;99.90;;;;;;4989205;28;20126;-79
2022/09/10 08:49:18;;;;;;;76.13;47.90;;;17.00;99.90;;;;;;4985661;28;20042;-79
2022/09/10 08:51:50;;;;;;;59.60;38.33;;;17.10;99.90;;;;;;4990040;28;20476;-79
2022/09/10 08:54:21;;;;;;;159.50;130.27;;;17.20;99.90;;;;;;4989618;28;20065;-79
2022/09/10 08:56:48;;;;;;;41.40;21.33;;;17.30;99.90;;;;;;4985443;28;20350;-79
2022/09/10 08:59:35;;;;;;;34.08;18.60;;;17.40;99.90;;;;;;4985200;28;20049;-79
2022/09/10 09:02:22;;;;;;;24.63;16.23;;;17.50;99.90;;;;;;4985916;28;20493;-79
2022/09/10 09:05:20;;;;;;;24.60;16.77;;;17.70;99.90;;;;;;4984983;28;20161;-79
2022/09/10 09:07:47;;;;;;;25.05;15.88;;;17.70;99.90;;;;;;4985841;28;20031;-79
2022/09/10 09:10:24;;;;;;;26.95;15.90;;;17.90;99.90;;;;;;4987038;28;20092;-79
2022/09/10 09:13:11;;;;;;;25.55;15.13;;;17.90;99.90;;;;;;4986657;28;20046;-79
2022/09/10 09:15:52;;;;;;;23.67;16.13;;;18.00;99.90;;;;;;4985289;28;20128;-78
2022/09/10 09:18:20;;;;;;;21.27;15.70;;;18.00;99.90;;;;;;4986918;28;20054;-79
2022/09/10 09:20:53;;;;;;;23.05;14.82;;;18.10;99.90;;;;;;4989963;28;20089;-79
2022/09/10 09:23:49;;;;;;;22.02;14.98;;;18.20;99.90;;;;;;4988743;28;20034;-79
2022/09/10 09:26:17;;;;;;;22.83;14.40;;;18.10;99.90;;;;;;4987117;28;20122;-79
2022/09/10 09:28:49;;;;;;;25.88;16.23;;;18.20;99.90;;;;;;4988446;28;20228;-79
2022/09/10 09:31:23;;;;;;;23.95;14.70;;;18.30;99.90;;;;;;4990114;28;20066;-80
2022/09/10 09:33:51;;;;;;;25.15;15.27;;;18.40;99.90;;;;;;4990478;28;20103;-79
2022/09/10 09:36:28;;;;;;;22.27;14.95;;;18.40;99.90;;;;;;5005884;28;20042;-79
2022/09/10 09:38:55;;;;;;;17.92;13.05;;;18.50;99.90;;;;;;4992194;28;20046;-79
2022/09/10 09:41:27;;;;;;;19.98;14.10;;;18.50;99.90;;;;;;5008688;28;20030;-79
2022/09/10 09:44:18;;;;;;;28.83;17.00;;;18.60;99.90;;;;;;4993976;28;20038;-79
2022/09/10 09:46:43;;;;;;;21.08;13.07;;;18.70;99.90;;;;;;4992857;28;20065;-79
2022/09/10 09:49:15;;;;;;;17.77;13.43;;;18.90;99.90;;;;;;4998393;28;20054;-79
2022/09/10 09:51:41;;;;;;;18.70;14.45;;;19.00;99.90;;;;;;4998651;28;20101;-79
2022/09/10 09:54:14;;;;;;;17.27;12.52;;;19.30;99.90;;;;;;4989792;28;20042;-80
2022/09/10 09:56:50;;;;;;;18.38;11.68;;;19.40;99.90;;;;;;4990495;28;20069;-79
2022/09/10 09:59:28;;;;;;;18.08;10.73;;;19.60;99.90;;;;;;4997233;28;20027;-80
2022/09/10 10:02:14;;;;;;;15.40;10.57;;;19.70;99.90;;;;;;4974325;28;20413;-80
2022/09/10 10:05:05;;;;;;;9.70;8.00;;;20.00;99.90;;;;;;4973153;28;20034;-80
2022/09/10 10:07:33;;;;;;;16.65;9.13;;;20.10;99.90;;;;;;5000106;28;20343;-80
2022/09/10 10:09:59;;;;;;;9.45;8.20;;;20.20;99.90;;;;;;4999737;28;20492;-80
2022/09/10 10:12:30;;;;;;;9.07;7.55;;;20.20;99.90;;;;;;4993330;28;20440;-80
2022/09/10 10:14:57;;;;;;;11.95;8.40;;;20.30;99.90;;;;;;5001010;28;20053;-80
2022/09/10 10:17:40;;;;;;;10.95;7.50;;;20.40;99.90;;;;;;4980464;28;20118;-80
2022/09/10 10:20:16;;;;;;;11.40;7.00;;;20.50;99.90;;;;;;4980062;28;20405;-80
2022/09/10 10:22:47;;;;;;;11.95;9.15;;;20.60;99.90;;;;;;4996870;28;20062;-80
2022/09/10 10:25:35;;;;;;;11.52;8.40;;;20.70;99.90;;;;;;5000976;28;20052;-80
2022/09/10 10:28:01;;;;;;;10.10;8.77;;;20.70;99.90;;;;;;4995508;28;20101;-80
2022/09/10 10:30:29;;;;;;;11.20;7.57;;;20.80;99.90;;;;;;5010864;28;20051;-80
2022/09/10 10:32:57;;;;;;;9.98;7.82;;;20.80;99.90;;;;;;4996907;28;20090;-80
2022/09/10 10:35:50;;;;;;;9.93;7.57;;;21.00;99.90;;;;;;5000713;28;20046;-80
2022/09/10 10:38:24;;;;;;;12.05;10.02;;;21.00;99.90;;;;;;4979875;28;20046;-80
2022/09/10 10:41:06;;;;;;;15.05;10.38;;;21.00;99.90;;;;;;4979617;28;20042;-80
2022/09/10 10:43:41;;;;;;;10.25;8.05;;;21.00;99.90;;;;;;4979684;28;20117;-79
2022/09/10 10:46:20;;;;;;;12.70;7.80;;;21.00;99.90;;;;;;4979121;28;20498;-80
2022/09/10 10:48:48;;;;;;;7.95;6.90;;;21.10;99.90;;;;;;4979294;28;20059;-80
2022/09/10 10:51:51;;;;;;;11.57;7.57;;;21.10;99.90;;;;;;4992274;28;20170;-80
2022/09/10 10:54:36;;;;;;;10.57;6.85;;;21.20;99.90;;;;;;4975585;28;20035;-81
2022/09/10 10:57:23;;;;;;;11.57;7.75;;;21.30;99.90;;;;;;4997896;28;20509;-80
2022/09/10 10:59:52;;;;;;;9.40;7.57;;;21.40;99.90;;;;;;4998847;28;20126;-79
2022/09/10 11:02:37;;;;;;;9.95;7.93;;;21.30;99.90;;;;;;4996927;28;20046;-81
2022/09/10 11:05:40;;;;;;;11.30;7.28;;;21.40;99.90;;;;;;4977687;28;20038;-79
2022/09/10 11:08:13;;;;;;;8.30;6.45;;;21.60;99.90;;;;;;4991301;28;20038;-81
2022/09/10 11:10:44;;;;;;;11.43;6.97;;;21.80;99.90;;;;;;4987871;28;20077;-81
2022/09/10 11:13:34;;;;;;;7.88;5.45;;;21.90;99.90;;;;;;4994096;28;20076;-79
2022/09/10 11:16:40;;;;;;;9.82;6.57;;;22.00;99.90;;;;;;4993555;28;20042;-79
2022/09/10 11:19:20;;;;;;;8.98;6.47;;;22.10;99.90;;;;;;4937403;29;20059;-78
2022/09/10 11:21:59;;;;;;;8.75;5.28;;;22.40;99.90;;;;;;4972451;28;20059;-80
2022/09/10 11:24:39;;;;;;;8.52;5.97;;;22.40;99.90;;;;;;4989500;28;20039;-79
2022/09/10 11:27:08;;;;;;;9.93;5.35;;;22.50;99.90;;;;;;4991942;28;20070;-80
2022/09/10 11:29:40;;;;;;;6.57;5.47;;;22.80;99.90;;;;;;4993882;28;20085;-80
2022/09/10 11:32:31;;;;;;;7.60;5.45;;;22.90;99.90;;;;;;4991552;28;20134;-81
2022/09/10 11:35:22;;;;;;;8.75;5.30;;;22.90;99.90;;;;;;4992654;28;20050;-79
2022/09/10 11:38:26;;;;;;;9.48;6.25;;;22.80;99.90;;;;;;5035193;22;20100;-77
2022/09/10 11:41:07;;;;;;;9.82;5.72;;;22.60;99.90;;;;;;5013277;28;20042;-76
2022/09/10 11:43:50;;;;;;;7.47;5.88;;;22.30;99.90;;;;;;5004478;28;20046;-76
2022/09/10 11:46:24;;;;;;;7.38;5.38;;;22.20;99.90;;;;;;4996758;28;20045;-76
2022/09/10 11:49:37;;;;;;;7.15;4.80;;;22.10;99.90;;;;;;5007711;28;20042;-76
2022/09/10 11:52:03;;;;;;;9.00;5.65;;;22.10;99.90;;;;;;4966426;28;20055;-77
2022/09/10 11:54:33;;;;;;;8.10;4.82;;;22.10;99.90;;;;;;5013413;28;20052;-77
2022/09/10 11:57:34;;;;;;;8.13;5.80;;;22.20;99.90;;;;;;4996946;28;20042;-77
2022/09/10 12:00:15;;;;;;;7.22;4.25;;;22.40;99.90;;;;;;4982350;28;20062;-77
2022/09/10 12:03:09;;;;;;;6.20;4.88;;;22.60;99.90;;;;;;4994425;28;20038;-77
2022/09/10 12:05:56;;;;;;;7.95;5.38;;;22.80;99.90;;;;;;4994992;28;20117;-77
2022/09/10 12:08:45;;;;;;;6.70;4.18;;;22.80;99.90;;;;;;4972756;28;20118;-77
2022/09/10 12:11:28;;;;;;;5.55;5.00;;;22.90;99.90;;;;;;5002888;28;20083;-77
2022/09/10 12:13:54;;;;;;;8.35;4.60;;;23.10;99.90;;;;;;5012746;28;20081;-76
2022/09/10 12:16:37;;;;;;;8.52;4.80;;;23.10;99.90;;;;;;5012776;28;20077;-77
2022/09/10 12:19:08;;;;;;;4.72;3.17;;;23.00;99.90;;;;;;5007608;28;20100;-76
2022/09/10 12:21:50;;;;;;;8.75;4.38;;;22.90;99.90;;;;;;4996605;28;20066;-78
2022/09/10 12:24:33;;;;;;;7.18;4.97;;;22.80;99.90;;;;;;5004482;28;20116;-77
2022/09/10 12:27:01;;;;;;;9.13;5.18;;;22.70;99.90;;;;;;4998505;28;20066;-77
2022/09/10 12:29:41;;;;;;;6.82;5.53;;;22.50;99.90;;;;;;4996090;28;20080;-77
2022/09/10 12:32:06;;;;;;;7.88;7.03;;;22.40;99.90;;;;;;5004823;28;20104;-77
2022/09/10 12:34:32;;;;;;;7.90;5.97;;;22.20;99.90;;;;;;5022800;28;20045;-77
2022/09/10 12:36:57;;;;;;;10.45;7.25;;;22.20;99.90;;;;;;5006540;28;20494;-77
2022/09/10 12:39:25;;;;;;;11.93;10.07;;;22.10;99.90;;;;;;4993851;28;20085;-77
2022/09/10 12:41:50;;;;;;;6.80;5.25;;;22.20;99.90;;;;;;4993222;28;20049;-77
2022/09/10 12:44:43;;;;;;;8.70;6.72;;;22.30;99.90;;;;;;4994194;28;20397;-77
